Time;durP1;ratioP1;P1;durP2;ratioP2;P2;SDS_P1;SDS_P2;PMS_P1;PMS_P2;Temp;Humidity;BMP_temperature;BMP_pressure;BME280_temperature;BME280_humidity;BME280_pressure;Samples;Min_cycle;Max_cycle;Signal;HPM_P1;HPM_P2
2023/06/24 00:01:23;;;;;;;9.53;8.83;;;17.00;79.60;;;;;;6280096;28;20251;-79
2023/06/24 00:04:26;;;;;;;9.07;8.47;;;17.00;79.70;;;;;;6258144;28;20291;-77
2023/06/24 00:07:30;;;;;;;11.37;10.47;;;17.00;79.80;;;;;;6251598;28;20246;-77
2023/06/24 00:10:35;;;;;;;11.47;10.60;;;17.00;79.90;;;;;;6261490;28;20250;-78
2023/06/24 00:13:39;;;;;;;10.87;10.07;;;17.00;80.00;;;;;;6258474;28;20239;-79
2023/06/24 00:16:42;;;;;;;9.10;8.50;;;17.00;80.10;;;;;;6252778;28;20942;-81
2023/06/24 00:19:45;;;;;;;10.70;10.00;;;17.00;80.20;;;;;;6262732;28;20257;-79
2023/06/24 00:22:51;;;;;;;10.67;9.97;;;17.00;80.30;;;;;;6270082;28;20238;-77
2023/06/24 00:25:55;;;;;;;9.87;9.27;;;16.90;80.40;;;;;;6263377;28;20230;-81
2023/06/24 00:28:59;;;;;;;11.10;10.33;;;16.90;80.50;;;;;;6259577;28;20227;-81
2023/06/24 00:32:02;;;;;;;11.43;10.60;;;16.80;80.70;;;;;;6264599;28;20760;-77
2023/06/24 00:35:06;;;;;;;13.30;12.30;;;16.80;80.80;;;;;;6269610;28;20272;-80
2023/06/24 00:38:11;;;;;;;16.47;14.97;;;16.70;80.90;;;;;;6265935;28;20223;-80
2023/06/24 00:41:17;;;;;;;18.87;17.10;;;16.70;81.60;;;;;;6266969;28;20226;-76
2023/06/24 00:44:20;;;;;;;15.30;14.07;;;16.70;82.00;;;;;;6280574;28;20237;-78
2023/06/24 00:47:24;;;;;;;19.27;17.37;;;16.70;81.90;;;;;;6294084;28;20245;-77
2023/06/24 00:50:27;;;;;;;19.20;17.03;;;16.70;82.10;;;;;;6293623;28;20254;-77
2023/06/24 00:53:32;;;;;;;20.83;18.73;;;16.70;82.20;;;;;;6286298;28;20237;-77
2023/06/24 00:56:38;;;;;;;22.67;20.47;;;16.70;82.60;;;;;;6281736;28;20238;-79
2023/06/24 00:59:42;;;;;;;17.93;16.23;;;16.70;82.50;;;;;;6254058;28;20239;-80
2023/06/24 01:02:48;;;;;;;20.33;18.20;;;16.70;82.50;;;;;;6262525;28;20250;-79
2023/06/24 01:05:52;;;;;;;23.73;21.47;;;16.60;82.50;;;;;;6271878;28;20241;-80
2023/06/24 01:08:57;;;;;;;23.90;19.80;;;16.70;82.60;;;;;;6290198;28;20214;-80
2023/06/24 01:12:00;;;;;;;18.77;17.10;;;16.60;82.70;;;;;;6279365;28;20519;-80
2023/06/24 01:15:04;;;;;;;20.73;18.67;;;16.60;82.70;;;;;;6262114;28;20419;-79
2023/06/24 01:18:14;;;;;;;23.40;19.23;;;16.50;82.60;;;;;;6259975;28;20241;-79
2023/06/24 01:21:24;;;;;;;20.97;19.17;;;16.50;82.70;;;;;;6265633;28;20234;-79
2023/06/24 01:24:51;;;;;;;20.93;17.93;;;16.50;82.70;;;;;;6262648;28;20613;-79
2023/06/24 01:28:10;;;;;;;19.80;17.77;;;16.40;82.70;;;;;;6249588;28;20300;-78
2023/06/24 01:31:41;;;;;;;18.37;16.63;;;16.40;82.50;;;;;;6258453;28;20234;-80
2023/06/24 01:34:51;;;;;;;19.57;17.57;;;16.40;82.40;;;;;;6250740;28;20250;-77
2023/06/24 01:37:58;;;;;;;17.60;16.00;;;16.40;82.30;;;;;;6265009;28;20309;-77
2023/06/24 01:41:05;;;;;;;16.40;15.10;;;16.40;82.20;;;;;;6264066;28;20364;-77
2023/06/24 01:44:13;;;;;;;18.93;17.20;;;16.30;82.20;;;;;;6251246;28;20342;-78
2023/06/24 01:47:23;;;;;;;16.03;14.77;;;16.30;82.10;;;;;;6262371;28;20271;-77
2023/06/24 01:50:28;;;;;;;19.00;17.07;;;16.20;82.00;;;;;;6263443;28;20372;-79
2023/06/24 01:53:36;;;;;;;17.03;15.43;;;16.20;81.80;;;;;;6261241;28;20226;-76
2023/06/24 01:56:40;;;;;;;18.67;16.80;;;16.10;81.90;;;;;;6219375;28;20231;-80
2023/06/24 01:59:46;;;;;;;19.70;17.97;;;16.10;81.80;;;;;;6235881;28;20285;-78
2023/06/24 02:02:52;;;;;;;18.03;16.23;;;16.10;81.80;;;;;;6234871;28;20322;-79
2023/06/24 02:05:57;;;;;;;20.17;18.27;;;16.10;81.80;;;;;;6221794;28;20229;-78
2023/06/24 02:09:03;;;;;;;15.40;14.07;;;16.10;81.80;;;;;;6229060;28;20270;-82
2023/06/24 02:12:09;;;;;;;17.57;16.07;;;16.00;81.70;;;;;;6228793;28;20304;-78
2023/06/24 02:15:14;;;;;;;18.93;16.50;;;16.00;81.70;;;;;;6232940;28;20235;-79
2023/06/24 02:18:20;;;;;;;19.57;17.57;;;16.00;81.70;;;;;;6219584;28;20273;-77
2023/06/24 02:21:25;;;;;;;17.27;15.57;;;16.00;81.70;;;;;;6213753;28;20278;-81
2023/06/24 02:24:29;;;;;;;18.10;16.10;;;16.00;81.60;;;;;;6222154;28;20295;-78
2023/06/24 02:27:33;;;;;;;16.13;14.93;;;16.00;81.60;;;;;;6229820;28;20243;-78
2023/06/24 02:30:39;;;;;;;18.43;16.73;;;16.00;81.50;;;;;;6233728;28;20330;-78
2023/06/24 02:33:44;;;;;;;16.97;15.40;;;16.00;81.40;;;;;;6216302;28;20286;-81
2023/06/24 02:36:48;;;;;;;19.53;16.57;;;15.90;81.20;;;;;;6235042;28;20252;-77
2023/06/24 02:39:51;;;;;;;17.77;15.13;;;15.90;80.80;;;;;;6223418;28;20316;-79
2023/06/24 02:42:54;;;;;;;16.70;15.27;;;15.90;80.80;;;;;;6234837;28;20242;-80
2023/06/24 02:46:00;;;;;;;16.60;15.17;;;15.80;80.40;;;;;;6238093;28;20339;-78
2023/06/24 02:49:06;;;;;;;16.23;14.77;;;15.80;80.40;;;;;;6222836;28;20313;-78
2023/06/24 02:52:09;;;;;;;14.43;13.20;;;15.80;80.20;;;;;;6219205;28;20239;-77
2023/06/24 02:55:12;;;;;;;14.83;13.60;;;15.80;80.20;;;;;;6234675;28;20313;-76
2023/06/24 02:58:16;;;;;;;17.03;15.30;;;15.70;80.20;;;;;;6233176;28;20247;-80
2023/06/24 03:01:24;;;;;;;16.07;14.57;;;15.70;80.20;;;;;;6230229;28;20463;-78
2023/06/24 03:04:30;;;;;;;14.73;13.53;;;15.60;80.30;;;;;;6228802;28;20235;-80
2023/06/24 03:07:34;;;;;;;15.13;13.83;;;15.60;80.30;;;;;;6230968;28;20247;-76
2023/06/24 03:10:38;;;;;;;13.83;12.73;;;15.60;80.10;;;;;;6228248;28;20317;-79
2023/06/24 03:13:41;;;;;;;15.97;14.53;;;15.60;80.20;;;;;;6237619;28;20728;-79
2023/06/24 03:16:44;;;;;;;14.70;13.40;;;15.60;80.10;;;;;;6239129;28;20245;-78
2023/06/24 03:19:49;;;;;;;16.07;13.90;;;15.60;80.30;;;;;;6243560;28;20239;-79
2023/06/24 03:22:52;;;;;;;15.20;13.87;;;15.60;80.00;;;;;;6238283;28;20285;-79
2023/06/24 03:25:55;;;;;;;14.90;13.50;;;15.60;80.00;;;;;;6261869;28;20225;-79
2023/06/24 03:28:59;;;;;;;14.47;13.07;;;15.60;80.00;;;;;;6258394;28;20226;-80
2023/06/24 03:32:02;;;;;;;14.63;13.47;;;15.60;79.90;;;;;;6251074;28;20249;-80
2023/06/24 03:35:08;;;;;;;15.00;13.60;;;15.60;79.90;;;;;;6262015;28;24781;-78
2023/06/24 03:38:12;;;;;;;17.07;15.20;;;15.60;80.00;;;;;;6251324;28;20235;-78
2023/06/24 03:41:15;;;;;;;13.07;12.07;;;15.50;79.90;;;;;;6231388;28;20234;-79
2023/06/24 03:44:18;;;;;;;18.20;13.97;;;15.50;80.00;;;;;;6234912;28;20782;-79
2023/06/24 03:47:21;;;;;;;16.03;14.40;;;15.50;79.90;;;;;;6230326;28;20395;-80
2023/06/24 03:50:25;;;;;;;15.00;13.70;;;15.50;79.80;;;;;;6231780;28;20623;-80
2023/06/24 03:53:28;;;;;;;16.53;14.73;;;15.50;79.70;;;;;;6228429;28;20743;-80
2023/06/24 03:56:31;;;;;;;14.60;13.30;;;15.50;79.80;;;;;;6224931;28;20241;-79
2023/06/24 03:59:35;;;;;;;16.93;15.33;;;15.50;79.80;;;;;;6222187;28;20294;-79
2023/06/24 04:02:38;;;;;;;17.23;15.50;;;15.40;80.00;;;;;;6224979;28;20261;-80
2023/06/24 04:05:43;;;;;;;15.23;13.83;;;15.40;80.00;;;;;;6233231;28;20246;-78
2023/06/24 04:08:48;;;;;;;16.73;14.97;;;15.50;80.20;;;;;;6216661;28;20235;-81
2023/06/24 04:11:52;;;;;;;16.03;14.47;;;15.50;79.80;;;;;;6232070;28;20312;-80
2023/06/24 04:14:55;;;;;;;15.43;13.93;;;15.50;79.80;;;;;;6225953;28;20688;-81
2023/06/24 04:17:58;;;;;;;14.53;13.37;;;15.50;79.50;;;;;;6222612;28;20233;-79
2023/06/24 04:21:03;;;;;;;15.27;14.07;;;15.50;79.50;;;;;;6233420;28;20235;-79
2023/06/24 04:24:06;;;;;;;16.37;14.63;;;15.40;79.40;;;;;;6229396;28;20293;-81
2023/06/24 04:27:10;;;;;;;15.50;14.10;;;15.30;79.40;;;;;;6228646;28;20302;-81
2023/06/24 04:30:13;;;;;;;17.60;14.83;;;15.30;79.60;;;;;;6232451;28;20230;-79
2023/06/24 04:33:17;;;;;;;15.87;14.57;;;15.30;79.50;;;;;;6230177;28;20231;-80
2023/06/24 04:36:21;;;;;;;15.20;13.70;;;15.20;79.50;;;;;;6229056;28;20262;-80
2023/06/24 04:39:25;;;;;;;16.17;14.33;;;15.20;79.80;;;;;;6232431;28;20245;-78
2023/06/24 04:42:28;;;;;;;16.33;14.73;;;15.30;79.70;;;;;;6236849;28;20238;-81
2023/06/24 04:45:31;;;;;;;15.97;14.37;;;15.30;79.70;;;;;;6220520;28;20243;-81
2023/06/24 04:48:34;;;;;;;15.27;13.93;;;15.40;79.60;;;;;;6220795;28;20242;-81
2023/06/24 04:51:40;;;;;;;16.00;14.50;;;15.50;79.70;;;;;;6231795;28;20308;-79
2023/06/24 04:54:43;;;;;;;14.87;13.27;;;15.60;79.60;;;;;;6211202;28;20238;-82
2023/06/24 04:57:46;;;;;;;20.47;14.07;;;15.70;79.40;;;;;;6241328;28;20314;-80
2023/06/24 05:00:50;;;;;;;14.07;12.80;;;15.80;78.80;;;;;;6236267;28;20264;-82
2023/06/24 05:03:53;;;;;;;14.43;13.17;;;16.00;78.70;;;;;;6238671;28;20729;-81
2023/06/24 05:06:57;;;;;;;14.47;13.03;;;16.20;78.20;;;;;;6232206;28;20239;-79
2023/06/24 05:10:01;;;;;;;14.43;13.20;;;16.40;77.90;;;;;;6236884;28;20238;-82
2023/06/24 05:13:04;;;;;;;13.70;12.30;;;16.60;76.40;;;;;;6239993;28;20411;-81
2023/06/24 05:16:07;;;;;;;12.60;11.47;;;16.80;75.50;;;;;;6242710;28;20269;-81
2023/06/24 05:19:10;;;;;;;11.37;10.37;;;17.00;75.40;;;;;;6238867;28;20758;-81
2023/06/24 05:22:15;;;;;;;11.40;10.30;;;17.40;74.50;;;;;;6225878;28;20231;-81
2023/06/24 05:25:18;;;;;;;11.83;10.83;;;17.50;73.70;;;;;;6227073;28;20227;-79
2023/06/24 05:28:21;;;;;;;12.70;11.67;;;17.90;72.80;;;;;;6236750;28;20316;-81
2023/06/24 05:31:24;;;;;;;12.60;11.47;;;17.90;72.50;;;;;;6229372;28;20313;-81
2023/06/24 05:34:27;;;;;;;12.17;11.03;;;18.00;71.90;;;;;;6226689;28;20730;-79
2023/06/24 05:37:32;;;;;;;11.17;10.20;;;18.20;71.40;;;;;;6237411;28;20239;-80
2023/06/24 05:40:35;;;;;;;10.83;9.93;;;18.40;71.30;;;;;;6231889;28;20239;-79
2023/06/24 05:43:38;;;;;;;10.80;9.90;;;18.50;70.50;;;;;;6234628;28;20242;-81
2023/06/24 05:46:44;;;;;;;10.73;9.67;;;18.80;70.60;;;;;;6226339;28;20306;-80
2023/06/24 05:49:47;;;;;;;11.27;10.30;;;18.80;69.50;;;;;;6235255;28;20230;-80
2023/06/24 05:52:51;;;;;;;11.83;10.77;;;19.00;69.20;;;;;;6237799;28;20239;-80
2023/06/24 05:55:55;;;;;;;10.70;9.60;;;19.10;68.50;;;;;;6244623;28;20226;-79
2023/06/24 05:58:58;;;;;;;13.20;11.07;;;19.20;68.30;;;;;;6228508;28;20329;-80
2023/06/24 06:02:02;;;;;;;12.83;11.63;;;19.30;67.90;;;;;;6231464;28;20246;-80
2023/06/24 06:05:06;;;;;;;11.00;9.90;;;19.10;68.70;;;;;;6233157;28;20230;-79
2023/06/24 06:08:10;;;;;;;10.53;9.67;;;19.20;68.40;;;;;;6235853;28;20285;-80
2023/06/24 06:11:13;;;;;;;11.20;10.17;;;19.50;68.70;;;;;;6227006;28;20245;-79
2023/06/24 06:14:16;;;;;;;10.53;9.53;;;19.90;67.20;;;;;;6228461;28;20245;-80
2023/06/24 06:17:21;;;;;;;10.00;9.30;;;20.30;66.80;;;;;;6226881;28;20708;-79
2023/06/24 06:20:24;;;;;;;10.67;9.87;;;20.60;65.00;;;;;;6230314;28;20265;-80
2023/06/24 06:23:29;;;;;;;9.20;8.57;;;20.80;65.10;;;;;;6223254;28;20817;-80
2023/06/24 06:26:33;;;;;;;9.93;9.03;;;21.10;64.90;;;;;;6225389;28;20328;-77
2023/06/24 06:29:36;;;;;;;8.83;8.30;;;21.10;64.50;;;;;;6218669;28;20426;-77
2023/06/24 06:32:40;;;;;;;10.00;9.33;;;21.30;64.10;;;;;;6220921;28;20320;-78
2023/06/24 06:35:43;;;;;;;9.73;8.67;;;21.50;63.50;;;;;;6228866;28;20479;-78
2023/06/24 06:38:47;;;;;;;10.37;9.57;;;21.70;63.50;;;;;;6237177;28;20258;-78
2023/06/24 06:41:50;;;;;;;10.40;9.40;;;21.70;62.50;;;;;;6236898;28;20321;-78
2023/06/24 06:44:53;;;;;;;9.57;8.63;;;21.70;62.20;;;;;;6229862;28;20861;-78
2023/06/24 06:47:57;;;;;;;9.47;8.87;;;21.10;63.60;;;;;;6233553;28;20237;-78
2023/06/24 06:51:00;;;;;;;9.10;8.40;;;21.50;63.40;;;;;;6219698;28;20246;-80
2023/06/24 06:54:04;;;;;;;10.20;9.23;;;21.90;64.00;;;;;;6231158;28;20814;-79
2023/06/24 06:57:08;;;;;;;10.07;9.27;;;22.40;63.00;;;;;;6239511;28;20930;-80
2023/06/24 07:00:12;;;;;;;9.93;9.23;;;22.00;61.90;;;;;;6260320;28;20573;-80
2023/06/24 07:03:16;;;;;;;9.93;9.03;;;21.30;64.30;;;;;;6261136;28;20227;-80
2023/06/24 07:06:20;;;;;;;9.10;8.60;;;21.50;63.30;;;;;;6249297;28;20242;-80
2023/06/24 07:09:25;;;;;;;10.23;9.23;;;21.50;64.00;;;;;;6259419;28;20379;-79
2023/06/24 07:12:31;;;;;;;8.27;7.70;;;21.60;63.50;;;;;;6247918;28;20692;-81
2023/06/24 07:15:34;;;;;;;10.23;9.33;;;21.90;63.30;;;;;;6250944;28;20288;-80
2023/06/24 07:18:38;;;;;;;10.47;9.57;;;22.00;62.30;;;;;;6257864;28;20244;-79
2023/06/24 07:21:41;;;;;;;10.80;7.60;;;22.00;62.60;;;;;;6256193;28;20399;-78
2023/06/24 07:24:45;;;;;;;9.90;9.00;;;22.00;62.20;;;;;;6250039;28;20760;-81
2023/06/24 07:27:51;;;;;;;7.63;7.17;;;22.00;62.00;;;;;;6249023;28;20437;-80
2023/06/24 07:30:54;;;;;;;8.40;7.63;;;22.00;61.70;;;;;;6246362;28;20289;-80
2023/06/24 07:33:58;;;;;;;7.53;6.73;;;21.70;61.80;;;;;;6256112;28;20234;-78
2023/06/24 07:37:01;;;;;;;7.40;6.90;;;21.80;62.30;;;;;;6251837;28;20313;-80
2023/06/24 07:40:29;;;;;;;9.27;7.33;;;22.00;61.50;;;;;;6244823;28;20233;-79
2023/06/24 07:43:32;;;;;;;7.50;6.87;;;21.90;60.00;;;;;;6253486;28;20325;-80
2023/06/24 07:46:35;;;;;;;7.27;6.87;;;21.80;59.70;;;;;;6245995;28;20234;-80
2023/06/24 07:49:39;;;;;;;7.17;6.47;;;21.80;59.40;;;;;;6263515;28;20233;-80
2023/06/24 07:52:42;;;;;;;7.50;6.90;;;21.40;59.10;;;;;;6254505;28;20242;-79
2023/06/24 07:55:47;;;;;;;6.93;6.33;;;21.50;59.70;;;;;;6248789;28;20246;-78
2023/06/24 07:58:50;;;;;;;7.00;6.43;;;21.50;59.90;;;;;;6244292;28;20292;-80
2023/06/24 08:01:53;;;;;;;7.33;6.93;;;21.60;59.50;;;;;;6244452;28;20725;-79
2023/06/24 08:04:56;;;;;;;7.63;6.93;;;21.20;60.60;;;;;;6255588;28;20241;-80
2023/06/24 08:08:00;;;;;;;6.27;6.00;;;21.10;59.40;;;;;;6244552;28;20318;-80
2023/06/24 08:11:05;;;;;;;6.80;6.50;;;21.10;59.30;;;;;;6231032;28;20314;-79
2023/06/24 08:14:08;;;;;;;6.87;6.57;;;20.90;59.90;;;;;;6239191;28;20240;-79
2023/06/24 08:17:14;;;;;;;5.50;5.30;;;20.80;60.20;;;;;;6270891;28;20618;-77
2023/06/24 08:20:17;;;;;;;7.07;6.70;;;20.70;61.20;;;;;;6264666;28;20238;-77
2023/06/24 08:23:20;;;;;;;6.60;6.13;;;20.80;60.80;;;;;;6269597;28;20276;-80
2023/06/24 08:33:45;;;;;;;6.70;6.30;;;21.10;60.40;;;;;;6258560;28;20232;-78
2023/06/24 08:36:48;;;;;;;7.03;6.63;;;21.40;60.50;;;;;;6265944;28;20236;-81
2023/06/24 08:39:51;;;;;;;6.80;6.40;;;21.40;59.80;;;;;;6254246;28;20241;-81
2023/06/24 08:42:56;;;;;;;7.10;6.50;;;21.40;59.10;;;;;;6255686;28;20257;-80
2023/06/24 08:45:59;;;;;;;6.63;6.17;;;21.50;59.50;;;;;;6257205;28;20269;-79
2023/06/24 08:49:09;;;;;;;6.70;6.20;;;21.70;59.30;;;;;;6259653;28;20233;-80
2023/06/24 08:52:15;;;;;;;6.33;6.00;;;21.60;59.40;;;;;;6263128;28;20234;-80
2023/06/24 08:55:23;;;;;;;7.47;6.77;;;21.70;58.60;;;;;;6253486;28;20239;-81
2023/06/24 08:58:27;;;;;;;6.80;6.40;;;21.80;58.00;;;;;;6256553;28;20306;-79
2023/06/24 09:01:30;;;;;;;6.47;5.97;;;21.90;58.60;;;;;;6251849;28;20242;-80
2023/06/24 09:04:34;;;;;;;7.20;6.80;;;22.00;58.40;;;;;;6257712;28;20230;-79
2023/06/24 09:07:38;;;;;;;6.97;6.57;;;22.10;56.40;;;;;;6245892;28;20231;-78
2023/06/24 09:10:41;;;;;;;6.77;6.27;;;22.20;57.80;;;;;;6253797;28;20776;-79
2023/06/24 09:13:45;;;;;;;6.57;6.07;;;22.20;57.10;;;;;;6277240;28;20882;-78
2023/06/24 09:16:56;;;;;;;6.77;6.37;;;21.90;56.30;;;;;;6254545;28;20265;-80
2023/06/24 09:20:05;;;;;;;5.97;5.70;;;22.00;57.70;;;;;;6252983;28;20234;-79
2023/06/24 09:23:09;;;;;;;6.90;6.50;;;21.90;57.80;;;;;;6248668;28;20812;-80
2023/06/24 09:26:12;;;;;;;6.67;6.37;;;22.00;57.40;;;;;;6262309;28;20281;-80
2023/06/24 09:29:16;;;;;;;6.73;6.27;;;22.10;56.60;;;;;;6260135;28;20897;-81
2023/06/24 09:32:20;;;;;;;6.40;6.00;;;22.40;57.40;;;;;;6254205;28;20352;-79
2023/06/24 09:35:24;;;;;;;6.90;6.53;;;22.30;57.00;;;;;;6261593;28;20245;-79
2023/06/24 09:38:34;;;;;;;5.60;5.20;;;22.60;55.10;;;;;;6265245;28;20230;-79
2023/06/24 09:41:40;;;;;;;5.80;5.50;;;22.40;54.30;;;;;;6252209;28;20266;-81
2023/06/24 09:44:45;;;;;;;5.67;5.37;;;22.50;54.60;;;;;;6250571;28;20259;-79
2023/06/24 09:47:48;;;;;;;6.23;5.93;;;22.50;54.20;;;;;;6261305;28;20372;-81
2023/06/24 09:50:52;;;;;;;6.40;6.20;;;22.50;56.00;;;;;;6250826;28;20230;-78
2023/06/24 09:53:57;;;;;;;5.67;5.40;;;22.60;56.10;;;;;;6233685;28;20260;-75
2023/06/24 09:57:02;;;;;;;5.90;5.50;;;22.50;54.50;;;;;;6247593;28;20278;-76
2023/06/24 10:00:09;;;;;;;5.00;4.77;;;22.20;55.20;;;;;;6227803;28;20234;-75
2023/06/24 10:03:13;;;;;;;7.70;5.53;;;22.20;55.60;;;;;;6234858;28;20247;-80
2023/06/24 10:06:18;;;;;;;5.23;5.00;;;22.10;55.10;;;;;;6232654;28;20223;-79
2023/06/24 10:09:22;;;;;;;5.30;5.07;;;22.30;55.70;;;;;;6237972;28;20297;-77
2023/06/24 10:12:27;;;;;;;5.03;4.73;;;22.30;54.90;;;;;;6203005;28;20247;-78
2023/06/24 10:15:32;;;;;;;4.83;4.53;;;22.50;54.20;;;;;;6248329;28;20773;-76
2023/06/24 10:18:36;;;;;;;4.00;3.90;;;22.50;53.60;;;;;;6264106;28;20351;-80
2023/06/24 10:21:47;;;;;;;4.63;4.50;;;22.60;53.40;;;;;;6267241;28;20337;-78
2023/06/24 10:24:52;;;;;;;4.70;4.50;;;22.60;53.80;;;;;;6266351;28;20287;-77
2023/06/24 10:27:55;;;;;;;4.93;4.73;;;22.50;53.50;;;;;;6234713;28;20241;-76
2023/06/24 10:31:00;;;;;;;5.67;4.40;;;22.50;53.30;;;;;;6251628;28;20249;-77
2023/06/24 10:34:06;;;;;;;4.77;4.47;;;22.50;53.20;;;;;;6266521;28;20586;-77
2023/06/24 10:37:11;;;;;;;4.80;4.53;;;22.60;53.20;;;;;;6261174;28;20813;-77
2023/06/24 10:40:35;;;;;;;4.70;4.40;;;22.60;53.40;;;;;;6263621;28;20234;-77
2023/06/24 10:43:40;;;;;;;4.67;4.27;;;22.60;54.30;;;;;;6259181;28;20237;-77
2023/06/24 10:46:55;;;;;;;5.30;4.90;;;22.60;54.00;;;;;;6255331;28;20241;-76
2023/06/24 10:49:58;;;;;;;5.43;5.13;;;22.50;55.20;;;;;;6264374;28;20285;-78
2023/06/24 10:53:08;;;;;;;4.90;4.70;;;22.50;56.20;;;;;;6256760;28;20246;-76
2023/06/24 10:56:12;;;;;;;5.17;4.97;;;22.50;56.50;;;;;;6267597;28;20363;-76
2023/06/24 10:59:15;;;;;;;5.13;4.83;;;22.60;55.30;;;;;;6231991;28;20226;-75
2023/06/24 11:02:24;;;;;;;5.60;5.40;;;22.80;56.40;;;;;;6258697;28;20779;-76
2023/06/24 11:05:27;;;;;;;5.73;5.30;;;22.50;56.10;;;;;;6263982;28;20242;-75
2023/06/24 11:08:30;;;;;;;5.43;5.00;;;22.70;56.20;;;;;;6261301;28;20250;-77
2023/06/24 11:11:33;;;;;;;5.20;5.00;;;22.80;55.20;;;;;;6225575;28;20235;-74
2023/06/24 11:14:37;;;;;;;6.80;5.43;;;23.00;55.90;;;;;;6230444;28;20244;-77
2023/06/24 11:17:43;;;;;;;5.43;5.23;;;23.00;55.40;;;;;;6227144;28;20235;-77
2023/06/24 11:20:54;;;;;;;5.27;5.00;;;23.00;55.50;;;;;;6216987;28;21874;-76
2023/06/24 11:24:03;;;;;;;5.27;4.97;;;23.10;54.90;;;;;;6248568;28;20238;-75
2023/06/24 11:27:06;;;;;;;5.13;4.93;;;23.10;54.80;;;;;;6233598;28;20246;-76
2023/06/24 11:30:10;;;;;;;5.90;5.50;;;23.30;54.30;;;;;;6223850;28;20258;-77
2023/06/24 11:33:26;;;;;;;5.47;5.17;;;23.20;53.40;;;;;;6239796;28;20251;-78
2023/06/24 11:36:30;;;;;;;5.70;5.37;;;23.30;54.50;;;;;;6229168;28;20239;-77
2023/06/24 11:39:33;;;;;;;5.67;5.37;;;23.20;53.70;;;;;;6233469;28;20270;-74
2023/06/24 11:42:39;;;;;;;5.70;5.40;;;23.30;53.60;;;;;;6229026;28;20320;-76
2023/06/24 11:45:42;;;;;;;6.80;5.90;;;23.30;53.90;;;;;;6221196;28;20326;-76
2023/06/24 11:48:46;;;;;;;5.90;5.60;;;23.40;54.80;;;;;;6216432;28;20235;-76
2023/06/24 11:51:52;;;;;;;5.67;5.27;;;23.50;53.40;;;;;;6233387;28;20250;-77
2023/06/24 11:54:55;;;;;;;5.00;4.70;;;23.60;52.20;;;;;;6234955;28;20239;-78
2023/06/24 11:58:00;;;;;;;5.67;5.37;;;23.80;52.90;;;;;;6224636;28;20238;-79
2023/06/24 12:01:04;;;;;;;5.20;5.03;;;23.90;52.40;;;;;;6222880;28;20235;-81
2023/06/24 12:04:13;;;;;;;6.30;5.90;;;23.90;52.10;;;;;;6233674;28;20277;-80
2023/06/24 12:07:16;;;;;;;5.80;5.40;;;23.90;53.30;;;;;;6228220;28;20261;-76
2023/06/24 12:10:19;;;;;;;5.40;5.20;;;23.90;52.20;;;;;;6233189;28;20250;-78
2023/06/24 12:13:22;;;;;;;6.00;5.27;;;24.00;51.50;;;;;;6228451;28;20304;-78
2023/06/24 12:16:26;;;;;;;5.20;5.00;;;24.00;51.90;;;;;;6233150;28;20266;-78
2023/06/24 12:19:31;;;;;;;5.20;4.97;;;24.20;51.80;;;;;;6217980;28;20318;-76
2023/06/24 12:22:34;;;;;;;7.13;6.10;;;24.30;50.80;;;;;;6232689;28;20364;-79
2023/06/24 12:25:37;;;;;;;5.77;5.27;;;24.30;51.50;;;;;;6237012;28;20285;-78
2023/06/24 12:28:40;;;;;;;5.90;5.50;;;24.40;50.90;;;;;;6227739;28;20235;-78
2023/06/24 12:31:43;;;;;;;5.87;5.43;;;24.30;51.50;;;;;;6234518;28;20241;-77
2023/06/24 12:34:48;;;;;;;5.50;5.30;;;24.20;51.30;;;;;;6231814;28;20231;-77
2023/06/24 12:37:51;;;;;;;6.10;5.70;;;24.20;52.00;;;;;;6231864;28;20308;-76
2023/06/24 12:40:54;;;;;;;5.57;5.27;;;24.30;52.70;;;;;;6227392;28;20247;-78
2023/06/24 12:43:57;;;;;;;5.83;5.33;;;24.40;51.80;;;;;;6225028;28;20250;-78
2023/06/24 12:47:00;;;;;;;7.77;6.30;;;24.20;52.00;;;;;;6235740;28;20792;-77
2023/06/24 12:50:06;;;;;;;6.13;5.83;;;24.20;52.00;;;;;;6218034;28;20243;-77
2023/06/24 12:53:14;;;;;;;5.07;4.87;;;24.40;51.60;;;;;;6214723;28;20259;-78
2023/06/24 12:56:17;;;;;;;5.20;5.00;;;24.50;51.60;;;;;;6221222;28;20246;-78
2023/06/24 12:59:20;;;;;;;6.47;6.03;;;24.60;51.00;;;;;;6228000;28;20278;-79
2023/06/24 13:02:23;;;;;;;6.33;5.97;;;24.60;50.10;;;;;;6226454;28;20257;-79
2023/06/24 13:05:28;;;;;;;5.17;4.97;;;24.40;51.70;;;;;;6230014;28;20797;-77
2023/06/24 13:08:31;;;;;;;5.83;5.57;;;24.60;51.50;;;;;;6223014;28;20836;-77
2023/06/24 13:11:34;;;;;;;5.60;5.30;;;24.70;50.70;;;;;;6222285;28;20235;-79
2023/06/24 13:14:38;;;;;;;5.67;5.37;;;24.70;50.50;;;;;;6235519;28;20314;-79
2023/06/24 13:17:41;;;;;;;5.60;5.30;;;24.90;51.10;;;;;;6238905;28;20357;-78
2023/06/24 13:20:46;;;;;;;5.60;5.40;;;25.00;50.90;;;;;;6239703;28;20234;-77
2023/06/24 13:23:49;;;;;;;5.57;5.07;;;25.00;50.60;;;;;;6261964;28;20245;-78
2023/06/24 13:26:53;;;;;;;4.97;4.77;;;25.00;50.70;;;;;;6265030;28;20314;-77
2023/06/24 13:29:56;;;;;;;5.63;5.13;;;25.00;50.20;;;;;;6265138;28;20257;-79
2023/06/24 13:32:59;;;;;;;5.90;5.40;;;25.00;50.60;;;;;;6251684;28;20230;-78
2023/06/24 13:36:05;;;;;;;5.30;5.10;;;25.10;50.80;;;;;;6260947;28;20230;-80
2023/06/24 13:39:11;;;;;;;5.23;4.80;;;25.20;49.70;;;;;;6242904;28;20239;-74
2023/06/24 13:42:15;;;;;;;5.60;5.30;;;25.20;50.00;;;;;;6219883;28;20263;-76
2023/06/24 13:45:19;;;;;;;5.80;5.43;;;25.10;50.30;;;;;;6223666;28;20793;-77
2023/06/24 13:48:22;;;;;;;5.20;5.00;;;25.20;50.40;;;;;;6229291;28;20425;-78
2023/06/24 13:51:26;;;;;;;5.93;5.37;;;25.30;49.50;;;;;;6231461;28;20247;-74
2023/06/24 13:54:32;;;;;;;5.47;5.27;;;25.20;49.60;;;;;;6239686;28;20429;-75
2023/06/24 13:57:35;;;;;;;5.80;5.47;;;25.30;49.50;;;;;;6225434;28;20247;-76
2023/06/24 14:00:39;;;;;;;5.33;5.03;;;25.40;49.90;;;;;;6235469;28;20325;-76
2023/06/24 14:03:42;;;;;;;6.07;5.80;;;25.40;49.70;;;;;;6227365;28;20234;-76
2023/06/24 14:06:47;;;;;;;5.73;5.50;;;25.50;49.50;;;;;;6230412;28;20230;-78
2023/06/24 14:09:51;;;;;;;5.33;5.10;;;25.50;49.50;;;;;;6232713;28;20239;-77
2023/06/24 14:12:54;;;;;;;5.83;5.43;;;25.50;49.00;;;;;;6229324;28;20234;-76
2023/06/24 14:15:57;;;;;;;6.43;5.90;;;25.50;49.00;;;;;;6227711;28;20235;-79
2023/06/24 14:19:00;;;;;;;5.60;5.40;;;25.60;49.10;;;;;;6230721;28;20321;-82
2023/06/24 14:22:06;;;;;;;6.00;5.50;;;25.50;49.20;;;;;;6238864;28;20247;-80
2023/06/24 14:25:09;;;;;;;5.97;5.77;;;25.50;49.10;;;;;;6231056;28;20235;-80
2023/06/24 14:28:13;;;;;;;5.67;5.37;;;25.60;49.20;;;;;;6230388;28;20311;-78
2023/06/24 14:31:16;;;;;;;6.30;5.80;;;25.60;49.70;;;;;;6221075;28;20715;-79
2023/06/24 14:34:19;;;;;;;5.60;5.30;;;25.80;49.20;;;;;;6230405;28;20246;-79
2023/06/24 14:37:24;;;;;;;6.07;5.53;;;25.80;49.80;;;;;;6238671;28;20258;-80
2023/06/24 14:40:27;;;;;;;5.10;4.80;;;25.90;49.40;;;;;;6236630;28;20254;-79
2023/06/24 14:43:30;;;;;;;5.47;5.20;;;25.90;49.30;;;;;;6227799;28;20273;-82
2023/06/24 14:46:33;;;;;;;5.63;5.40;;;25.80;48.80;;;;;;6247943;28;20229;-80
2023/06/24 14:49:37;;;;;;;6.17;5.77;;;25.80;49.20;;;;;;6241742;28;20682;-79
2023/06/24 14:52:42;;;;;;;5.73;5.40;;;25.80;49.40;;;;;;6223683;28;20947;-79
2023/06/24 14:55:45;;;;;;;5.53;5.23;;;26.00;49.40;;;;;;6225164;28;20290;-81
2023/06/24 14:58:48;;;;;;;5.50;5.30;;;26.00;49.40;;;;;;6232044;28;20633;-80
2023/06/24 15:01:51;;;;;;;6.20;5.57;;;26.00;49.10;;;;;;6229759;28;20247;-80
2023/06/24 15:04:55;;;;;;;5.53;5.23;;;26.00;49.10;;;;;;6230855;28;20231;-80
2023/06/24 15:07:59;;;;;;;6.67;6.27;;;26.00;48.90;;;;;;6220490;28;20812;-81
2023/06/24 15:11:02;;;;;;;5.73;5.37;;;26.00;48.20;;;;;;6231492;28;20281;-81
2023/06/24 15:14:06;;;;;;;5.63;5.33;;;26.00;49.20;;;;;;6227837;28;20235;-80
2023/06/24 15:17:09;;;;;;;5.90;5.50;;;26.00;49.50;;;;;;6219542;28;20260;-78
2023/06/24 15:20:13;;;;;;;6.43;5.87;;;26.00;48.90;;;;;;6231595;28;20238;-80
2023/06/24 15:23:20;;;;;;;6.47;6.17;;;25.80;49.10;;;;;;6225701;28;20553;-80
2023/06/24 15:26:23;;;;;;;5.80;5.40;;;25.90;48.80;;;;;;6232943;28;20705;-81
2023/06/24 15:29:27;;;;;;;5.60;5.40;;;25.80;48.80;;;;;;6227025;28;20630;-81
2023/06/24 15:32:30;;;;;;;5.93;5.60;;;25.80;48.50;;;;;;6223894;28;20249;-78
2023/06/24 15:35:33;;;;;;;6.27;5.77;;;26.00;48.60;;;;;;6225158;28;20274;-78
2023/06/24 15:38:42;;;;;;;5.67;5.47;;;26.20;49.10;;;;;;6222114;28;20289;-79
2023/06/24 15:41:49;;;;;;;6.10;5.63;;;26.20;48.60;;;;;;6230455;28;20271;-79
2023/06/24 15:44:52;;;;;;;5.67;5.47;;;26.40;48.30;;;;;;6219556;28;20235;-79
2023/06/24 15:47:56;;;;;;;6.23;5.90;;;26.50;48.40;;;;;;6222579;28;20236;-79
2023/06/24 15:50:59;;;;;;;6.50;6.10;;;26.60;48.00;;;;;;6227009;28;20234;-78
2023/06/24 15:54:04;;;;;;;6.70;6.17;;;26.60;48.60;;;;;;6230792;28;20231;-78
2023/06/24 15:57:07;;;;;;;5.87;5.47;;;26.60;48.40;;;;;;6226620;28;20742;-78